createdAt,value
2023-05-04T00:03:10.566Z,5.70
2023-05-04T00:08:13.839Z,5.60
2023-05-04T00:13:17.229Z,5.50
2023-05-04T00:18:20.457Z,5.50
2023-05-04T00:23:23.575Z,5.50
2023-05-04T00:28:26.875Z,5.40
2023-05-04T00:33:30.102Z,5.30
2023-05-04T00:38:50.407Z,5.20
2023-05-04T00:43:53.603Z,5.20
2023-05-04T00:48:59.582Z,5.14
2023-05-04T00:54:03.216Z,5.18
2023-05-04T00:59:06.537Z,5.16
2023-05-04T01:04:10.679Z,5.20
2023-05-04T01:09:36.590Z,5.20
2023-05-04T01:14:41.408Z,5.14
2023-05-04T01:19:44.536Z,5.20
2023-05-04T01:24:48.346Z,5.20
2023-05-04T01:30:02.479Z,5.10
2023-05-04T01:35:06.747Z,5.00
2023-05-04T01:40:10.778Z,4.90
2023-05-04T01:45:14.193Z,4.90
2023-05-04T01:50:17.521Z,4.80
2023-05-04T01:55:20.724Z,4.70
2023-05-04T02:00:24.161Z,4.60
2023-05-04T02:05:27.533Z,4.50
2023-05-04T02:10:30.851Z,4.50
2023-05-04T02:15:34.066Z,4.60
2023-05-04T02:20:37.163Z,4.70
2023-05-04T02:25:43.693Z,4.80
2023-05-04T02:30:46.977Z,4.80
2023-05-04T02:35:50.108Z,4.70
2023-05-04T02:40:53.298Z,4.64
2023-05-04T02:45:56.532Z,4.60
2023-05-04T02:50:59.903Z,4.64
2023-05-04T02:56:03.217Z,4.62
2023-05-04T03:01:06.673Z,4.60
2023-05-04T03:06:09.856Z,4.64
2023-05-04T03:11:13.249Z,4.70
2023-05-04T03:16:17.514Z,4.72
2023-05-04T03:21:21.611Z,4.70
2023-05-04T03:26:24.922Z,4.70
2023-05-04T03:31:28.193Z,4.70
2023-05-04T03:36:31.447Z,4.70
2023-05-04T03:41:34.554Z,4.70
2023-05-04T03:46:37.861Z,4.70
2023-05-04T03:51:41.188Z,4.70
2023-05-04T03:56:44.381Z,4.70
2023-05-04T04:01:47.460Z,4.70
2023-05-04T04:06:50.493Z,4.88
2023-05-04T04:11:53.614Z,5.00
2023-05-04T04:16:56.806Z,5.10
2023-05-04T04:22:00.326Z,5.20
2023-05-04T04:27:03.539Z,5.30
2023-05-04T04:32:06.853Z,5.40
2023-05-04T04:37:10.049Z,5.56
2023-05-04T04:42:13.772Z,5.70
2023-05-04T04:47:18.223Z,5.80
2023-05-04T04:52:21.837Z,5.90
2023-05-04T04:57:25.046Z,6.00
2023-05-04T05:02:31.138Z,6.02
2023-05-04T05:07:34.439Z,6.20
2023-05-04T05:12:37.696Z,6.50
2023-05-04T05:17:41.100Z,6.78
2023-05-04T05:22:44.382Z,6.92
2023-05-04T05:27:47.676Z,7.50
2023-05-04T05:32:51.399Z,7.76
2023-05-04T05:37:55.521Z,7.90
2023-05-04T05:42:58.698Z,8.00
2023-05-04T05:48:01.754Z,8.20
2023-05-04T05:53:05.058Z,8.50
2023-05-04T05:58:08.975Z,8.82
2023-05-04T06:03:12.189Z,9.10
2023-05-04T06:08:15.492Z,9.18
2023-05-04T06:13:18.924Z,9.34
2023-05-04T06:18:22.414Z,9.70
2023-05-04T06:23:26.648Z,10.10
2023-05-04T06:28:29.871Z,10.20
2023-05-04T06:33:33.078Z,10.30
2023-05-04T06:38:38.040Z,10.38
2023-05-04T06:43:42.662Z,10.40
2023-05-04T06:48:45.871Z,10.50
2023-05-04T06:53:49.188Z,10.70
2023-05-04T06:58:52.506Z,10.90
2023-05-04T07:03:58.636Z,11.10
2023-05-04T07:09:01.988Z,11.30
2023-05-04T07:14:05.184Z,11.50
2023-05-04T07:19:08.543Z,11.78
2023-05-04T07:24:12.141Z,12.00
2023-05-04T07:29:15.973Z,12.20
2023-05-04T07:34:19.223Z,12.40
2023-05-04T07:39:23.794Z,12.60
2023-05-04T07:44:27.607Z,12.70
2023-05-04T07:49:30.736Z,12.98
2023-05-04T07:54:33.929Z,13.20
2023-05-04T07:59:37.038Z,13.40
2023-05-04T08:04:40.145Z,13.60
2023-05-04T08:09:43.558Z,13.80
2023-05-04T08:14:48.600Z,14.00
2023-05-04T08:19:51.744Z,14.26
2023-05-04T08:24:55.130Z,14.46
2023-05-04T08:29:58.950Z,14.70
2023-05-04T08:35:02.165Z,15.00
2023-05-04T08:40:06.597Z,15.10
2023-05-04T08:45:10.696Z,15.30
2023-05-04T08:50:14.591Z,15.60
2023-05-04T08:55:18.890Z,16.00
2023-05-04T09:00:23.397Z,16.00
2023-05-04T09:05:28.480Z,15.90
2023-05-04T09:10:31.689Z,16.30
2023-05-04T09:15:35.006Z,16.80
2023-05-04T09:20:49.681Z,16.90
2023-05-04T09:25:57.184Z,16.90
2023-05-04T09:31:01.846Z,17.00
2023-05-04T09:36:22.240Z,16.80
2023-05-04T09:41:34.666Z,16.50
2023-05-04T09:46:38.202Z,16.40
2023-05-04T09:51:43.234Z,16.50
2023-05-04T09:56:52.653Z,16.60
2023-05-04T10:01:57.337Z,16.90
2023-05-04T10:07:09.958Z,17.46
2023-05-04T10:12:13.442Z,18.06
2023-05-04T10:17:48.715Z,18.10
2023-05-04T10:23:08.225Z,17.68
2023-05-04T10:28:55.102Z,17.10
2023-05-04T10:33:58.364Z,16.70
2023-05-04T10:39:02.084Z,16.56
2023-05-04T10:44:06.950Z,16.70
2023-05-04T10:49:17.237Z,17.10
2023-05-04T10:54:20.624Z,17.70
2023-05-04T10:59:23.746Z,18.22
2023-05-04T11:04:27.464Z,18.40
2023-05-04T11:09:38.655Z,18.60
2023-05-04T11:14:43.500Z,18.60
2023-05-04T11:19:52.941Z,18.40
2023-05-04T11:24:56.667Z,18.30
2023-05-04T11:30:04.512Z,18.40
2023-05-04T11:35:18.915Z,18.40
2023-05-04T11:40:25.755Z,18.30
2023-05-04T11:45:35.017Z,18.60
2023-05-04T11:50:38.836Z,18.50
2023-05-04T11:55:42.654Z,18.70
2023-05-04T12:00:49.314Z,18.82
2023-05-04T12:05:56.141Z,19.10
2023-05-04T12:11:21.907Z,19.64
2023-05-04T12:16:25.032Z,19.80
2023-05-04T12:21:28.691Z,19.50
2023-05-04T12:26:31.933Z,19.60
2023-05-04T12:31:35.256Z,19.30
2023-05-04T12:36:38.439Z,19.26
2023-05-04T12:41:41.636Z,19.20
2023-05-04T12:46:44.749Z,19.10
2023-05-04T12:51:48.456Z,19.20
2023-05-04T12:56:51.716Z,19.58
2023-05-04T13:01:56.116Z,19.70
2023-05-04T13:06:59.340Z,19.20
2023-05-04T13:12:02.528Z,19.50
2023-05-04T13:17:05.862Z,19.90
2023-05-04T13:22:09.147Z,20.10
2023-05-04T13:27:12.466Z,20.82
2023-05-04T13:32:15.883Z,21.40
2023-05-04T13:37:18.976Z,21.30
2023-05-04T13:42:23.457Z,21.00
2023-05-04T13:47:26.865Z,21.00
2023-05-04T13:52:32.090Z,21.20
2023-05-04T13:57:35.505Z,21.52
2023-05-04T14:02:38.981Z,21.60
2023-05-04T14:07:42.330Z,21.60
2023-05-04T14:12:46.019Z,21.80
2023-05-04T14:17:50.440Z,21.30
2023-05-04T14:22:53.606Z,20.80
2023-05-04T14:27:56.799Z,20.60
2023-05-04T14:33:00.660Z,20.54
2023-05-04T14:38:03.932Z,20.60
2023-05-04T14:43:07.559Z,20.70
2023-05-04T14:48:10.793Z,20.70
2023-05-04T14:53:14.078Z,20.50
2023-05-04T14:58:18.034Z,20.50
2023-05-04T15:03:22.099Z,20.50
2023-05-04T15:08:25.544Z,20.50
2023-05-04T15:13:29.476Z,20.20
2023-05-04T15:18:32.573Z,19.78
2023-05-04T15:23:35.888Z,19.32
2023-05-04T15:28:39.111Z,19.28
2023-05-04T15:33:42.402Z,19.40
2023-05-04T15:38:46.150Z,19.64
2023-05-04T15:43:49.342Z,19.80
2023-05-04T15:48:52.679Z,20.20
2023-05-04T15:53:55.953Z,20.50
2023-05-04T15:58:59.165Z,20.78
2023-05-04T16:04:02.748Z,20.70
2023-05-04T16:09:07.213Z,20.30
2023-05-04T16:14:11.145Z,20.00
2023-05-04T16:19:14.351Z,20.00
2023-05-04T16:24:17.701Z,19.80
2023-05-04T16:29:20.976Z,19.50
2023-05-04T16:34:24.212Z,19.30
2023-05-04T16:39:31.927Z,19.30
2023-05-04T16:44:35.626Z,19.10
2023-05-04T16:49:38.728Z,18.40
2023-05-04T16:54:41.856Z,18.00
2023-05-04T16:59:45.455Z,17.94
2023-05-04T17:04:48.585Z,17.60
2023-05-04T17:09:51.787Z,17.50
2023-05-04T17:14:55.085Z,17.10
2023-05-04T17:19:58.400Z,17.00
2023-05-04T17:25:01.705Z,16.70
2023-05-04T17:30:06.885Z,16.40
2023-05-04T17:35:23.482Z,16.30
2023-05-04T17:40:29.473Z,16.20
2023-05-04T17:45:33.363Z,16.20
2023-05-04T17:50:38.244Z,16.00
2023-05-04T17:55:41.437Z,15.80
2023-05-04T18:00:44.762Z,15.50
2023-05-04T18:05:48.059Z,15.20
2023-05-04T18:10:51.366Z,15.00
2023-05-04T18:15:54.896Z,14.90
2023-05-04T18:21:00.010Z,14.70
2023-05-04T18:26:03.556Z,14.60
2023-05-04T18:31:07.064Z,14.46
2023-05-04T18:36:10.584Z,14.40
2023-05-04T18:41:14.238Z,14.30
2023-05-04T18:46:17.507Z,14.20
2023-05-04T18:51:20.828Z,14.10
2023-05-04T18:56:24.557Z,14.10
2023-05-04T19:01:28.413Z,14.00
2023-05-04T19:06:33.278Z,13.90
2023-05-04T19:11:36.434Z,13.80
2023-05-04T19:16:40.335Z,13.70
2023-05-04T19:21:44.285Z,13.68
2023-05-04T19:26:47.724Z,13.58
2023-05-04T19:31:51.526Z,13.40
2023-05-04T19:36:54.752Z,13.30
2023-05-04T19:41:58.037Z,13.20
2023-05-04T19:47:01.266Z,13.10
2023-05-04T19:52:07.218Z,13.00
2023-05-04T19:57:10.731Z,12.80
2023-05-04T20:02:14.422Z,12.70
2023-05-04T20:07:18.093Z,12.60
2023-05-04T20:12:21.816Z,12.50
2023-05-04T20:17:25.051Z,12.44
2023-05-04T20:22:28.414Z,12.38
2023-05-04T20:27:31.618Z,12.20
2023-05-04T20:32:34.967Z,12.10
2023-05-04T20:37:38.346Z,12.00
2023-05-04T20:42:41.457Z,12.00
2023-05-04T20:47:44.788Z,11.90
2023-05-04T20:52:48.087Z,11.80
2023-05-04T20:57:52.509Z,11.78
2023-05-04T21:02:56.151Z,11.70
2023-05-04T21:07:59.547Z,11.56
2023-05-04T21:13:02.772Z,11.50
2023-05-04T21:18:06.309Z,11.34
2023-05-04T21:23:09.585Z,11.24
2023-05-04T21:28:12.790Z,11.16
2023-05-04T21:33:16.099Z,11.00
2023-05-04T21:38:21.820Z,11.00
2023-05-04T21:43:25.694Z,11.00
2023-05-04T21:48:30.055Z,10.90
2023-05-04T21:53:33.948Z,10.86
2023-05-04T21:58:42.202Z,10.80
2023-05-04T22:03:46.225Z,10.76
2023-05-04T22:08:49.614Z,10.70
2023-05-04T22:13:52.929Z,10.60
2023-05-04T22:18:56.139Z,10.60
2023-05-04T22:24:00.105Z,10.50
2023-05-04T22:29:03.987Z,10.34
2023-05-04T22:34:07.505Z,10.28
2023-05-04T22:39:10.923Z,10.26
2023-05-04T22:44:14.038Z,10.20
2023-05-04T22:49:17.959Z,10.10
2023-05-04T22:54:21.161Z,10.10
2023-05-04T22:59:24.376Z,10.00
2023-05-04T23:04:28.117Z,10.00
2023-05-04T23:09:31.224Z,9.90
2023-05-04T23:14:34.500Z,9.90
2023-05-04T23:19:37.625Z,9.80
2023-05-04T23:24:41.459Z,9.60
2023-05-04T23:29:44.663Z,9.60
2023-05-04T23:34:47.963Z,9.60
2023-05-04T23:39:51.273Z,9.50
2023-05-04T23:44:56.016Z,9.50
2023-05-04T23:49:59.553Z,9.40
2023-05-04T23:55:03.855Z,9.40
